Time;durP1;ratioP1;P1;durP2;ratioP2;P2;SDS_P1;SDS_P2;PMS_P1;PMS_P2;Temp;Humidity;BMP_temperature;BMP_pressure;BME280_temperature;BME280_humidity;BME280_pressure;Samples;Min_cycle;Max_cycle;Signal;HPM_P1;HPM_P2
2022/06/30 00:02:22;;;;;;;19.08;7.95;;;;;;;25.88;100.00;100878.56;5067569;28;20421;-75
2022/06/30 00:05:08;;;;;;;8.75;7.50;;;;;;;25.60;100.00;100876.31;5080701;28;20052;-76
2022/06/30 00:07:53;;;;;;;10.80;7.32;;;;;;;25.57;100.00;100879.22;5069311;28;20071;-75
2022/06/30 00:10:39;;;;;;;9.65;7.57;;;;;;;25.61;100.00;100872.63;5081267;28;20036;-76
2022/06/30 00:13:25;;;;;;;9.35;7.47;;;;;;;25.62;100.00;100877.03;5080304;28;20095;-77
2022/06/30 00:16:11;;;;;;;16.02;8.02;;;;;;;25.54;100.00;100877.63;5082335;28;20369;-76
2022/06/30 00:18:57;;;;;;;12.50;7.50;;;;;;;25.44;100.00;100876.59;5081959;28;20104;-76
2022/06/30 00:21:42;;;;;;;11.98;7.70;;;;;;;25.55;100.00;100873.97;5080022;28;20028;-75
2022/06/30 00:24:28;;;;;;;8.52;7.07;;;;;;;25.39;100.00;100875.25;5080669;28;20032;-76
2022/06/30 00:27:14;;;;;;;11.13;7.43;;;;;;;25.53;100.00;100869.69;5080085;28;20040;-76
2022/06/30 00:30:00;;;;;;;11.80;7.53;;;;;;;25.24;100.00;100871.03;5066999;28;20089;-75
2022/06/30 00:32:46;;;;;;;8.93;6.93;;;;;;;25.49;100.00;100870.91;5080523;28;20045;-77
2022/06/30 00:35:34;;;;;;;9.10;7.38;;;;;;;25.34;100.00;100872.06;5067543;28;20172;-76
2022/06/30 00:38:20;;;;;;;11.10;7.90;;;;;;;25.27;100.00;100870.81;5066564;28;20032;-76
2022/06/30 00:41:06;;;;;;;11.70;7.40;;;;;;;25.40;100.00;100871.59;5080956;28;20548;-76
2022/06/30 00:43:52;;;;;;;7.80;7.10;;;;;;;25.26;100.00;100867.25;5065854;28;20031;-75
2022/06/30 00:46:38;;;;;;;12.48;8.00;;;;;;;25.38;100.00;100870.84;5079577;28;20028;-74
2022/06/30 00:49:24;;;;;;;9.65;7.22;;;;;;;25.37;100.00;100875.38;5080183;28;20016;-75
2022/06/30 00:52:10;;;;;;;9.82;6.97;;;;;;;25.09;100.00;100866.81;5066067;28;20036;-76
2022/06/30 00:54:57;;;;;;;12.35;7.70;;;;;;;25.45;100.00;100867.59;5066267;28;20117;-76
2022/06/30 00:57:44;;;;;;;10.50;7.40;;;;;;;25.49;100.00;100860.16;5079857;28;20084;-76
2022/06/30 01:00:33;;;;;;;9.48;7.20;;;;;;;25.61;100.00;100864.59;5065772;28;20028;-75
2022/06/30 01:03:20;;;;;;;8.93;7.32;;;;;;;25.53;100.00;100869.69;5078321;28;20082;-75
2022/06/30 01:06:06;;;;;;;10.38;7.50;;;;;;;25.41;100.00;100870.63;5079655;28;20423;-76
2022/06/30 01:08:52;;;;;;;10.05;7.80;;;;;;;25.23;100.00;100862.09;5079632;28;20480;-76
2022/06/30 01:14:43;;;;;;;10.80;7.97;;;;;;;25.43;100.00;100874.06;5082213;28;20013;-76
2022/06/30 01:17:29;;;;;;;13.20;9.30;;;;;;;25.39;100.00;100870.72;5068403;28;20028;-76
2022/06/30 01:20:17;;;;;;;11.05;8.98;;;;;;;25.29;100.00;100872.44;5066270;28;20043;-76
2022/06/30 01:23:04;;;;;;;12.35;9.48;;;;;;;25.30;100.00;100881.31;5079771;28;20445;-76
2022/06/30 01:25:51;;;;;;;14.50;9.23;;;;;;;24.95;100.00;100872.34;5080441;28;20111;-75
2022/06/30 01:28:37;;;;;;;14.55;9.13;;;;;;;25.08;100.00;100871.28;5080801;28;20115;-76
2022/06/30 01:31:24;;;;;;;18.60;9.68;;;;;;;24.70;100.00;100873.28;5065720;28;20021;-76
2022/06/30 01:34:09;;;;;;;15.90;10.60;;;;;;;24.47;100.00;100868.69;5067091;28;20016;-76
2022/06/30 01:36:55;;;;;;;14.70;9.60;;;;;;;24.48;100.00;100867.75;5066026;28;20024;-76
2022/06/30 01:39:41;;;;;;;13.13;9.52;;;;;;;24.52;100.00;100866.56;5065181;28;20028;-76
2022/06/30 01:42:27;;;;;;;12.52;9.20;;;;;;;24.44;100.00;100877.00;5092111;28;20012;-76
2022/06/30 01:45:13;;;;;;;15.48;9.35;;;;;;;24.52;100.00;100865.69;5081837;28;20020;-76
2022/06/30 01:48:01;;;;;;;14.05;9.35;;;;;;;24.42;100.00;100868.19;5081050;28;20048;-76
2022/06/30 01:50:50;;;;;;;12.80;9.73;;;;;;;24.59;100.00;100865.13;5093825;28;20080;-76
2022/06/30 01:53:36;;;;;;;13.20;9.48;;;;;;;24.79;100.00;100866.41;5079045;28;20039;-76
2022/06/30 01:56:21;;;;;;;13.10;8.75;;;;;;;24.66;100.00;100865.56;5092915;28;20012;-74
2022/06/30 01:59:07;;;;;;;16.45;9.73;;;;;;;24.85;100.00;100869.50;5091613;28;20088;-75
2022/06/30 02:01:53;;;;;;;11.30;8.93;;;;;;;24.60;100.00;100863.31;5095713;28;20015;-80
2022/06/30 02:04:48;;;;;;;14.20;9.43;;;;;;;24.88;100.00;100861.22;5097807;28;20029;-74
2022/06/30 02:07:36;;;;;;;11.27;8.85;;;;;;;24.90;100.00;100861.97;5083247;28;20008;-76
2022/06/30 02:10:24;;;;;;;14.13;9.15;;;;;;;24.89;100.00;100867.44;5082608;28;20013;-76
2022/06/30 02:13:09;;;;;;;14.73;9.23;;;;;;;24.46;100.00;100856.28;5096354;28;20063;-77
2022/06/30 02:15:55;;;;;;;13.77;9.07;;;;;;;24.05;100.00;100858.41;5097805;28;20027;-74
2022/06/30 02:18:41;;;;;;;10.93;8.38;;;;;;;24.22;100.00;100858.03;5082451;28;20009;-76
2022/06/30 02:21:27;;;;;;;13.90;8.68;;;;;;;24.47;100.00;100851.78;5082577;28;20029;-75
2022/06/30 02:24:13;;;;;;;11.48;8.88;;;;;;;24.25;100.00;100856.97;5095229;28;20024;-75
2022/06/30 02:26:59;;;;;;;10.30;8.65;;;;;;;24.17;100.00;100852.16;5095327;28;20151;-75
2022/06/30 02:29:45;;;;;;;13.10;9.07;;;;;;;24.40;100.00;100854.06;5094168;28;20086;-76
2022/06/30 02:32:30;;;;;;;15.68;8.57;;;;;;;24.33;100.00;100846.56;5091370;28;20028;-76
2022/06/30 02:35:17;;;;;;;14.05;9.10;;;;;;;24.09;100.00;100856.34;5091240;28;20036;-73
2022/06/30 02:38:12;;;;;;;13.20;9.05;;;;;;;24.33;100.00;100844.75;5095301;28;20008;-75
2022/06/30 02:40:58;;;;;;;13.07;9.50;;;;;;;24.72;100.00;100852.59;5095778;28;20029;-75
2022/06/30 02:43:44;;;;;;;15.45;9.50;;;;;;;24.72;100.00;100859.78;5096433;28;20031;-76
2022/06/30 02:46:29;;;;;;;13.13;9.85;;;;;;;24.56;100.00;100867.19;5096905;28;20023;-78
2022/06/30 02:49:20;;;;;;;11.65;9.50;;;;;;;24.54;100.00;100863.75;5082502;28;20078;-76
2022/06/30 02:52:07;;;;;;;18.73;10.93;;;;;;;24.68;100.00;100869.88;5096990;28;20029;-74
2022/06/30 02:54:52;;;;;;;18.00;11.95;;;;;;;24.46;100.00;100868.81;5097383;28;20048;-76
2022/06/30 02:57:38;;;;;;;16.60;11.68;;;;;;;24.32;100.00;100863.59;5096402;28;20033;-76
2022/06/30 03:00:24;;;;;;;13.65;10.18;;;;;;;24.40;100.00;100863.91;5096094;28;20031;-76
2022/06/30 03:03:10;;;;;;;14.75;10.25;;;;;;;24.54;100.00;100871.78;5094175;28;20048;-76
2022/06/30 03:05:55;;;;;;;13.85;10.52;;;;;;;24.39;100.00;100876.44;5093421;28;20039;-76
2022/06/30 03:08:41;;;;;;;17.42;12.05;;;;;;;24.09;100.00;100884.00;5077375;28;20031;-76
2022/06/30 03:11:27;;;;;;;18.50;10.23;;;;;;;23.81;100.00;100875.28;5092456;28;20040;-76
2022/06/30 03:14:13;;;;;;;17.27;9.38;;;;;;;23.91;100.00;100862.97;5091724;28;20020;-77
2022/06/30 03:16:59;;;;;;;11.20;8.98;;;;;;;23.62;100.00;100874.84;5090725;28;20020;-75
2022/06/30 03:19:44;;;;;;;12.52;8.73;;;;;;;23.88;100.00;100874.75;5073324;28;20028;-75
2022/06/30 03:22:30;;;;;;;12.05;8.57;;;;;;;23.67;100.00;100870.91;5085913;28;20112;-75
2022/06/30 03:25:16;;;;;;;13.32;9.05;;;;;;;23.79;100.00;100874.53;5085666;28;20096;-75
2022/06/30 03:28:04;;;;;;;11.60;8.52;;;;;;;23.60;100.00;100877.63;5087600;28;20023;-76
2022/06/30 03:30:50;;;;;;;10.45;8.80;;;;;;;23.69;100.00;100879.66;5067706;28;20330;-75
2022/06/30 03:33:37;;;;;;;14.88;9.05;;;;;;;23.60;100.00;100879.44;5081295;28;20028;-76
2022/06/30 03:36:23;;;;;;;12.20;8.98;;;;;;;23.70;100.00;100878.69;5080539;28;20066;-75
2022/06/30 03:39:09;;;;;;;10.88;9.02;;;;;;;23.58;100.00;100873.34;5064163;28;20029;-76
2022/06/30 03:41:54;;;;;;;16.65;8.60;;;;;;;23.52;100.00;100881.78;5076842;28;20368;-75
2022/06/30 03:44:40;;;;;;;10.80;8.75;;;;;;;23.77;100.00;100876.44;5076488;28;20028;-76
2022/06/30 03:47:26;;;;;;;13.48;9.23;;;;;;;23.80;100.00;100885.13;5060913;28;20111;-76
2022/06/30 03:50:12;;;;;;;14.35;8.98;;;;;;;24.04;100.00;100882.59;5061886;28;20032;-76
2022/06/30 03:52:58;;;;;;;13.48;8.77;;;;;;;24.31;100.00;100886.00;5077090;28;20028;-77
2022/06/30 03:55:44;;;;;;;14.13;8.88;;;;;;;24.29;100.00;100882.56;5078463;28;20085;-76
2022/06/30 03:58:30;;;;;;;12.18;9.98;;;;;;;24.17;100.00;100888.78;5077645;28;20048;-78
2022/06/30 04:01:15;;;;;;;14.45;9.32;;;;;;;24.34;100.00;100892.00;5075012;28;20032;-76
2022/06/30 04:04:01;;;;;;;13.68;10.23;;;;;;;24.43;100.00;100899.34;5059635;28;20056;-74
2022/06/30 04:06:47;;;;;;;12.82;9.85;;;;;;;24.50;100.00;100899.78;5074835;28;20024;-76
2022/06/30 04:09:33;;;;;;;13.13;9.88;;;;;;;24.45;100.00;100907.28;5076492;28;20028;-76
2022/06/30 04:12:19;;;;;;;13.95;10.13;;;;;;;24.33;100.00;100913.53;5066477;28;20361;-74
2022/06/30 04:15:05;;;;;;;13.20;9.63;;;;;;;24.47;100.00;100902.69;5078054;28;20025;-75
2022/06/30 04:17:51;;;;;;;16.88;9.65;;;;;;;24.35;100.00;100919.63;5078397;28;20029;-72
2022/06/30 04:20:37;;;;;;;11.68;9.43;;;;;;;24.33;100.00;100919.75;5077949;28;20032;-73
2022/06/30 04:23:23;;;;;;;13.38;10.20;;;;;;;24.41;100.00;100924.53;5078027;28;20090;-73
2022/06/30 04:26:09;;;;;;;16.42;10.38;;;;;;;24.41;100.00;100911.16;5077747;28;20025;-74
2022/06/30 04:28:54;;;;;;;11.95;10.35;;;;;;;24.70;100.00;100907.25;5079593;28;20044;-77
2022/06/30 04:34:45;;;;;;;14.57;9.73;;;;;;;24.55;100.00;100911.03;5077526;28;20024;-75
2022/06/30 04:37:30;;;;;;;14.35;10.38;;;;;;;24.75;100.00;100905.13;5077565;28;20029;-75
2022/06/30 04:43:21;;;;;;;12.82;10.48;;;;;;;24.72;100.00;100898.16;5078141;28;20035;-74
2022/06/30 04:46:07;;;;;;;12.98;9.93;;;;;;;24.98;100.00;100901.59;5077749;28;20025;-74
2022/06/30 04:48:53;;;;;;;17.23;10.55;;;;;;;25.26;100.00;100903.94;5077185;28;20414;-75
2022/06/30 04:51:39;;;;;;;12.20;9.80;;;;;;;24.63;100.00;100897.97;5075658;28;20460;-74
2022/06/30 04:54:25;;;;;;;16.33;9.82;;;;;;;24.90;100.00;100899.50;5076361;28;20070;-75
2022/06/30 04:57:11;;;;;;;11.75;9.20;;;;;;;25.13;100.00;100897.78;5076671;28;20107;-74
2022/06/30 04:59:57;;;;;;;14.23;10.57;;;;;;;25.54;100.00;100900.91;5076471;28;20372;-74
2022/06/30 05:02:42;;;;;;;16.92;10.32;;;;;;;25.68;100.00;100898.03;5075972;28;20029;-75
2022/06/30 05:05:28;;;;;;;14.82;10.77;;;;;;;25.71;100.00;100900.47;5076613;28;20048;-74
2022/06/30 05:08:14;;;;;;;22.80;12.02;;;;;;;25.81;100.00;100899.66;5077111;28;20028;-74
2022/06/30 05:11:00;;;;;;;14.65;10.10;;;;;;;25.61;100.00;100894.09;5062694;28;20053;-74
2022/06/30 05:13:46;;;;;;;15.70;10.20;;;;;;;25.98;100.00;100907.28;5076226;28;20116;-74
2022/06/30 05:16:32;;;;;;;18.48;11.93;;;;;;;26.07;100.00;100916.44;5076044;28;20028;-75
2022/06/30 05:19:17;;;;;;;20.83;11.90;;;;;;;25.85;100.00;100916.38;5076675;28;20477;-75
2022/06/30 05:22:04;;;;;;;22.20;13.52;;;;;;;25.97;100.00;100916.34;5075103;28;20040;-74
2022/06/30 05:27:54;;;;;;;21.58;13.00;;;;;;;25.93;100.00;100919.31;5076499;28;20025;-75
2022/06/30 05:30:41;;;;;;;21.15;12.80;;;;;;;26.19;100.00;100921.72;5075305;28;20039;-74
2022/06/30 05:33:27;;;;;;;19.35;10.93;;;;;;;26.40;100.00;100927.22;5076298;28;20032;-75
2022/06/30 05:36:13;;;;;;;15.27;10.55;;;;;;;26.35;100.00;100921.34;5076185;28;20024;-74
2022/06/30 05:38:58;;;;;;;15.65;9.52;;;;;;;26.60;100.00;100926.53;5075948;28;20071;-76
2022/06/30 05:41:44;;;;;;;15.35;9.70;;;;;;;26.25;100.00;100934.69;5076524;28;20116;-74
2022/06/30 05:44:30;;;;;;;17.92;9.10;;;;;;;26.44;100.00;100928.69;5076432;28;20052;-74
2022/06/30 05:47:16;;;;;;;19.00;9.07;;;;;;;26.37;100.00;100935.53;5060833;28;20032;-74
2022/06/30 05:50:01;;;;;;;12.50;9.20;;;;;;;26.62;100.00;100935.31;5076008;28;20106;-74
2022/06/30 05:52:50;;;;;;;11.60;8.93;;;;;;;26.81;100.00;100946.31;5075598;28;20200;-75
2022/06/30 05:55:36;;;;;;;11.95;8.77;;;;;;;26.91;100.00;100948.13;5075659;28;20032;-74
2022/06/30 05:58:22;;;;;;;10.70;8.07;;;;;;;26.91;100.00;100952.63;5076097;28;20368;-74
2022/06/30 06:01:07;;;;;;;14.95;8.38;;;;;;;26.98;100.00;100951.16;5075293;28;20032;-73
2022/06/30 06:03:53;;;;;;;10.05;7.93;;;;;;;26.87;100.00;100959.25;5076017;28;20041;-74
2022/06/30 06:06:39;;;;;;;14.07;7.32;;;;;;;27.09;100.00;100959.22;5076809;28;20055;-75
2022/06/30 06:09:25;;;;;;;14.77;7.38;;;;;;;27.01;100.00;100954.44;5075227;28;20043;-74
2022/06/30 06:12:12;;;;;;;9.43;7.75;;;;;;;27.30;100.00;100962.84;5076482;28;20028;-75
2022/06/30 06:14:58;;;;;;;12.85;6.95;;;;;;;27.49;100.00;100961.19;5076017;28;20090;-74
2022/06/30 06:17:47;;;;;;;12.15;7.50;;;;;;;27.79;100.00;100970.34;5076559;28;20056;-74
2022/06/30 06:20:32;;;;;;;9.88;7.28;;;;;;;27.70;100.00;100963.06;5061190;28;20508;-75
2022/06/30 06:23:18;;;;;;;15.13;7.25;;;;;;;27.52;100.00;100969.00;5076115;28;20047;-74
2022/06/30 06:26:04;;;;;;;9.57;6.88;;;;;;;27.58;100.00;100957.72;5081379;28;20013;-72
2022/06/30 06:29:05;;;;;;;8.93;6.80;;;;;;;27.83;100.00;100961.06;5094202;28;20031;-74
2022/06/30 06:31:51;;;;;;;10.85;7.07;;;;;;;27.84;100.00;100960.09;5096714;28;20018;-74
2022/06/30 06:34:37;;;;;;;12.27;7.63;;;;;;;28.06;100.00;100968.03;5097679;28;20025;-74
2022/06/30 06:37:22;;;;;;;15.75;7.03;;;;;;;27.91;100.00;100967.53;5097362;28;20046;-74
2022/06/30 06:40:09;;;;;;;9.27;6.93;;;;;;;28.08;100.00;100963.41;5098149;28;20016;-75
2022/06/30 06:42:55;;;;;;;10.98;8.82;;;;;;;28.37;100.00;100967.94;5098149;28;20025;-74
2022/06/30 06:45:40;;;;;;;11.90;8.90;;;;;;;28.56;100.00;100951.91;5094413;28;20036;-75
2022/06/30 06:48:26;;;;;;;10.65;8.40;;;;;;;28.57;100.00;100952.75;5083513;28;20035;-75
2022/06/30 06:51:12;;;;;;;10.15;7.80;;;;;;;28.98;100.00;100949.91;5071814;28;20021;-74
2022/06/30 06:53:58;;;;;;;13.70;7.55;;;;;;;28.77;100.00;100955.38;5082052;28;20032;-74
2022/06/30 06:56:43;;;;;;;11.60;7.75;;;;;;;29.17;100.00;100948.13;5081732;28;20056;-76
2022/06/30 06:59:29;;;;;;;11.48;7.32;;;;;;;29.23;100.00;100957.53;5078152;28;20035;-72
2022/06/30 07:02:15;;;;;;;9.35;6.90;;;;;;;29.91;100.00;100952.91;5074225;28;20024;-72
2022/06/30 07:05:00;;;;;;;16.83;8.55;;;;;;;29.78;100.00;100960.41;5058621;28;20055;-71
2022/06/30 07:07:55;;;;;;;17.42;7.97;;;;;;;30.13;100.00;100957.97;5074214;28;20369;-71
2022/06/30 07:10:41;;;;;;;19.20;7.72;;;;;;;30.21;100.00;100957.25;5074548;28;20028;-73
2022/06/30 07:13:27;;;;;;;16.65;7.53;;;;;;;30.07;100.00;100958.56;5074288;28;20044;-72
2022/06/30 07:16:12;;;;;;;13.43;11.23;;;;;;;30.01;100.00;100961.81;5073579;28;20028;-71
2022/06/30 07:18:59;;;;;;;11.98;7.72;;;;;;;30.20;97.52;100955.56;5074766;28;20096;-71
2022/06/30 07:21:45;;;;;;;12.65;8.68;;;;;;;30.11;100.00;100957.28;5060054;28;20031;-75
2022/06/30 07:24:30;;;;;;;10.02;7.95;;;;;;;30.42;100.00;100955.22;5074538;28;20369;-73
2022/06/30 07:27:20;;;;;;;10.20;7.28;;;;;;;30.53;100.00;100950.47;5074874;28;20056;-75
2022/06/30 07:30:06;;;;;;;14.20;7.90;;;;;;;30.75;99.14;100955.56;5076168;28;20029;-74
2022/06/30 07:32:52;;;;;;;10.05;8.27;;;;;;;30.78;99.17;100957.09;5074567;28;20032;-74
2022/06/30 07:35:38;;;;;;;11.57;8.32;;;;;;;30.82;100.00;100956.63;5059716;28;20418;-75
2022/06/30 07:38:23;;;;;;;10.20;8.07;;;;;;;31.03;96.94;100951.81;5073794;28;20508;-75
2022/06/30 07:41:18;;;;;;;13.45;8.40;;;;;;;31.08;96.49;100951.38;5074323;28;20078;-74
2022/06/30 07:44:04;;;;;;;13.70;8.50;;;;;;;31.68;93.29;100952.50;5060603;28;20024;-75
2022/06/30 07:46:50;;;;;;;12.18;7.95;;;;;;;31.89;89.08;100962.06;5077531;28;20028;-75
2022/06/30 07:49:36;;;;;;;12.48;7.50;;;;;;;31.79;85.03;100964.03;5077645;28;20017;-74
2022/06/30 07:52:22;;;;;;;10.85;7.85;;;;;;;31.71;81.33;100958.50;5077240;28;20035;-75
2022/06/30 07:55:08;;;;;;;14.57;9.80;;;;;;;32.20;77.13;100960.59;5077779;28;20075;-75
2022/06/30 07:57:54;;;;;;;13.48;9.70;;;;;;;32.19;76.35;100958.91;5063334;28;20029;-74
2022/06/30 08:00:41;;;;;;;13.82;8.90;;;;;;;32.39;72.61;100957.72;5078903;28;20087;-74
2022/06/30 08:03:27;;;;;;;11.45;8.15;;;;;;;32.64;74.81;100956.84;5076766;28;20040;-75
2022/06/30 08:06:13;;;;;;;12.48;8.85;;;;;;;32.42;78.28;100961.97;5077130;28;20028;-74
2022/06/30 08:08:59;;;;;;;15.80;10.13;;;;;;;32.79;76.80;100955.19;5062042;28;20039;-75
2022/06/30 08:11:45;;;;;;;17.85;9.32;;;;;;;33.53;72.91;100948.00;5078291;28;20111;-74
2022/06/30 08:14:30;;;;;;;13.98;8.98;;;;;;;33.59;72.38;100949.19;5077103;28;20016;-75
2022/06/30 08:17:16;;;;;;;13.27;8.73;;;;;;;33.32;69.76;100947.63;5062202;28;20460;-75
2022/06/30 08:20:02;;;;;;;13.98;9.20;;;;;;;33.99;68.55;100943.78;5077810;28;20032;-75
2022/06/30 08:22:48;;;;;;;17.38;8.85;;;;;;;34.12;63.16;100939.50;5078429;28;20020;-75
2022/06/30 08:25:34;;;;;;;11.90;8.00;;;;;;;34.62;63.11;100948.28;5063154;28;20027;-75
2022/06/30 08:28:20;;;;;;;11.80;7.50;;;;;;;34.41;57.78;100950.72;5076030;28;20099;-75
2022/06/30 08:31:06;;;;;;;13.50;7.45;;;;;;;34.69;56.29;100938.38;5077372;28;20031;-75
2022/06/30 08:33:52;;;;;;;12.63;8.10;;;;;;;35.09;56.21;100934.63;5076735;28;20032;-74
2022/06/30 08:36:37;;;;;;;12.38;8.52;;;;;;;34.87;57.60;100938.16;5061564;28;20073;-74
2022/06/30 08:42:30;;;;;;;11.60;7.72;;;;;;;34.54;57.70;100936.53;5077996;28;20127;-74
2022/06/30 08:45:17;;;;;;;9.48;7.70;;;;;;;35.05;56.36;100927.84;5076072;28;20031;-74
2022/06/30 08:48:04;;;;;;;16.50;8.45;;;;;;;35.06;55.32;100924.94;5062567;28;20301;-74
2022/06/30 08:50:58;;;;;;;11.65;8.23;;;;;;;34.72;56.27;100927.13;5076529;28;20036;-75
2022/06/30 08:53:49;;;;;;;10.80;7.50;;;;;;;34.89;56.60;100928.81;5077539;28;20066;-73
2022/06/30 08:56:36;;;;;;;11.43;8.05;;;;;;;35.04;55.21;100937.06;5074915;28;20024;-74
2022/06/30 08:59:24;;;;;;;10.25;7.63;;;;;;;34.68;55.22;100925.78;5077102;28;20039;-75
2022/06/30 09:02:09;;;;;;;10.07;8.13;;;;;;;35.22;55.70;100929.44;5062842;28;20437;-74
2022/06/30 09:04:55;;;;;;;12.45;8.35;;;;;;;34.71;55.69;100928.16;5076629;28;20041;-74
2022/06/30 09:07:41;;;;;;;20.50;12.48;;;;;;;35.03;54.79;100925.31;5077955;28;20338;-74
2022/06/30 09:10:49;;;;;;;13.50;7.65;;;;;;;35.78;51.83;100931.81;5077980;28;20044;-73
2022/06/30 09:16:53;;;;;;;12.25;7.57;;;;;;;35.90;51.31;100926.75;5078067;28;20016;-74
2022/06/30 09:20:00;;;;;;;8.32;6.90;;;;;;;35.79;49.43;100928.06;5076547;28;20567;-74
2022/06/30 09:22:48;;;;;;;9.98;7.38;;;;;;;35.27;49.78;100923.47;5075861;28;20093;-74
2022/06/30 09:25:34;;;;;;;11.50;6.30;;;;;;;34.89;50.34;100915.19;5061521;28;20026;-73
2022/06/30 09:28:40;;;;;;;9.07;6.65;;;;;;;34.65;50.85;100914.41;5076221;28;20435;-74
2022/06/30 09:31:42;;;;;;;12.25;6.85;;;;;;;34.67;51.78;100915.06;5074810;28;20051;-74
2022/06/30 09:34:28;;;;;;;14.43;8.43;;;;;;;35.13;51.15;100914.19;5075996;28;20081;-74
2022/06/30 09:37:22;;;;;;;9.60;7.10;;;;;;;34.95;50.14;100899.97;5075139;28;20055;-75
2022/06/30 09:40:10;;;;;;;14.10;8.98;;;;;;;35.13;50.42;100903.28;5075513;28;20071;-73
2022/06/30 09:42:56;;;;;;;9.02;6.22;;;;;;;35.22;49.21;100906.81;5076081;28;20114;-75
2022/06/30 09:45:42;;;;;;;8.70;6.57;;;;;;;35.28;49.00;100897.91;5075815;28;20089;-75
2022/06/30 09:48:32;;;;;;;9.52;8.35;;;;;;;35.80;46.76;100899.78;5075395;28;20094;-74
2022/06/30 09:51:18;;;;;;;8.93;6.13;;;;;;;35.74;44.42;100905.91;5075829;28;20028;-74
2022/06/30 09:54:09;;;;;;;8.95;5.97;;;;;;;34.81;45.94;100901.59;5074706;28;20094;-74
2022/06/30 09:57:07;;;;;;;8.80;5.43;;;;;;;35.01;45.01;100899.28;5062173;28;20039;-74
2022/06/30 10:00:12;;;;;;;9.30;6.28;;;;;;;35.20;44.99;100894.19;5075564;28;20066;-74
2022/06/30 10:03:05;;;;;;;9.45;5.22;;;;;;;35.22;42.94;100895.91;5059643;28;20040;-70
2022/06/30 10:06:07;;;;;;;8.85;5.55;;;;;;;35.14;43.01;100897.66;5074499;28;20105;-71
2022/06/30 10:08:56;;;;;;;9.77;4.82;;;;;;;35.39;42.25;100889.34;5074436;28;20097;-71
2022/06/30 10:11:43;;;;;;;10.73;5.43;;;;;;;35.02;43.22;100884.63;5060642;28;20028;-73
2022/06/30 10:14:34;;;;;;;9.05;5.00;;;;;;;34.72;43.77;100891.72;5075158;28;20036;-72
2022/06/30 10:17:23;;;;;;;5.57;4.57;;;;;;;34.76;42.24;100887.63;5074076;28;20471;-72
2022/06/30 10:20:09;;;;;;;7.95;4.57;;;;;;;34.74;42.80;100886.09;5074820;28;20035;-71
2022/06/30 10:22:55;;;;;;;7.25;4.65;;;;;;;34.56;42.24;100880.06;5074579;28;20340;-72
2022/06/30 10:25:41;;;;;;;7.72;4.55;;;;;;;34.76;42.10;100884.06;5074610;28;20036;-72
2022/06/30 10:28:27;;;;;;;8.50;4.57;;;;;;;34.54;42.21;100884.84;5061525;28;20081;-72
2022/06/30 10:31:33;;;;;;;6.82;4.45;;;;;;;34.87;42.40;100875.50;5060247;28;20449;-71
2022/06/30 10:34:25;;;;;;;6.88;4.30;;;;;;;34.84;40.59;100879.44;5061262;28;20047;-72
2022/06/30 10:37:19;;;;;;;9.45;4.60;;;;;;;34.49;41.70;100874.50;5058870;28;20032;-72
2022/06/30 10:40:32;;;;;;;5.82;4.18;;;;;;;34.51;40.37;100871.59;5074261;28;20094;-71
2022/06/30 10:43:18;;;;;;;12.18;9.20;;;;;;;34.93;40.47;100862.03;5074354;28;20032;-71
2022/06/30 10:46:06;;;;;;;15.00;12.38;;;;;;;34.78;40.14;100861.06;5059544;28;20048;-70
2022/06/30 10:48:56;;;;;;;5.60;4.25;;;;;;;34.95;40.87;100853.66;5074532;28;20028;-72
2022/06/30 10:51:42;;;;;;;11.82;4.32;;;;;;;34.73;41.03;100852.59;5074124;28;20037;-71
2022/06/30 10:54:29;;;;;;;8.15;4.40;;;;;;;34.41;41.46;100846.44;5059718;28;20043;-71
2022/06/30 10:57:17;;;;;;;7.32;4.47;;;;;;;34.97;40.75;100846.19;5060829;28;20460;-70
2022/06/30 11:00:03;;;;;;;6.00;4.20;;;;;;;35.46;40.26;100850.25;5060328;28;20123;-70
2022/06/30 11:02:48;;;;;;;6.45;4.22;;;;;;;35.66;39.78;100854.19;5074546;28;20040;-71
2022/06/30 11:05:50;;;;;;;6.65;4.30;;;;;;;35.57;39.57;100851.69;5073888;28;20049;-73
2022/06/30 11:08:36;;;;;;;5.70;3.70;;;;;;;35.79;40.01;100846.22;5073390;28;20033;-73
2022/06/30 11:11:22;;;;;;;7.60;3.83;;;;;;;35.37;37.50;100848.66;5073786;28;20029;-73
2022/06/30 11:14:07;;;;;;;7.70;4.10;;;;;;;35.47;37.96;100841.03;5073476;28;20033;-71
2022/06/30 11:16:53;;;;;;;5.35;3.85;;;;;;;35.23;38.75;100833.03;5059135;28;20059;-72
2022/06/30 11:19:39;;;;;;;8.00;4.30;;;;;;;35.05;38.90;100827.06;5058860;28;20029;-74
2022/06/30 11:22:30;;;;;;;8.10;6.78;;;;;;;35.53;39.00;100825.84;5073850;28;20039;-75
2022/06/30 11:28:34;;;;;;;10.75;4.53;;;;;;;36.18;38.36;100830.47;5074674;28;20087;-75
2022/06/30 11:31:31;;;;;;;9.32;4.85;;;;;;;35.99;38.79;100822.84;5073729;28;20025;-75
2022/06/30 11:34:19;;;;;;;6.60;4.47;;;;;;;36.24;37.36;100818.81;5074691;28;20377;-76
2022/06/30 11:37:08;;;;;;;7.13;4.57;;;;;;;36.59;36.93;100812.56;5073771;28;20136;-75
2022/06/30 11:39:58;;;;;;;11.75;8.20;;;;;;;36.61;36.98;100806.91;5075017;28;20093;-75
2022/06/30 11:42:44;;;;;;;20.27;18.13;;;;;;;36.61;36.39;100807.75;5059249;28;20048;-74
2022/06/30 11:45:30;;;;;;;10.15;3.78;;;;;;;35.80;36.98;100807.03;5073400;28;20035;-74
2022/06/30 11:48:15;;;;;;;7.80;4.00;;;;;;;36.08;36.72;100805.31;5074349;28;20125;-75
2022/06/30 11:51:01;;;;;;;7.53;3.60;;;;;;;36.17;35.74;100800.63;5073805;28;20032;-75
2022/06/30 11:53:50;;;;;;;6.22;3.30;;;;;;;36.69;35.34;100791.28;5074028;28;20032;-74
2022/06/30 11:56:46;;;;;;;7.88;4.18;;;;;;;36.24;35.63;100786.06;5060242;28;20085;-75
2022/06/30 11:59:34;;;;;;;7.28;3.78;;;;;;;36.74;35.68;100788.81;5073618;28;20032;-75
2022/06/30 12:02:20;;;;;;;7.03;3.80;;;;;;;36.46;35.15;100790.56;5072586;28;20024;-74
2022/06/30 12:05:09;;;;;;;7.18;3.92;;;;;;;36.35;35.63;100787.47;5072805;28;20049;-76
2022/06/30 12:07:55;;;;;;;5.50;3.80;;;;;;;36.68;35.79;100781.38;5073439;28;20047;-74
2022/06/30 12:10:44;;;;;;;7.00;4.43;;;;;;;36.62;35.58;100784.00;5058761;28;20020;-75
2022/06/30 12:13:30;;;;;;;9.25;4.15;;;;;;;36.00;36.03;100783.59;5073071;28;20025;-75
2022/06/30 12:16:18;;;;;;;6.32;3.90;;;;;;;37.00;35.41;100786.34;5073236;28;20020;-75
2022/06/30 12:19:04;;;;;;;11.75;5.25;;;;;;;37.09;34.96;100782.47;5073691;28;20038;-77
2022/06/30 12:21:51;;;;;;;7.25;4.18;;;;;;;36.87;35.16;100782.63;5058867;28;20029;-75
2022/06/30 12:24:39;;;;;;;10.68;4.43;;;;;;;37.37;35.04;100785.25;5059041;28;20471;-76
2022/06/30 12:27:29;;;;;;;10.85;5.32;;;;;;;36.96;35.50;100776.84;5073423;28;20112;-76
2022/06/30 12:30:18;;;;;;;9.52;5.70;;;;;;;37.12;35.31;100773.84;5074032;28;20476;-75
2022/06/30 12:33:07;;;;;;;7.00;4.95;;;;;;;37.15;35.57;100764.44;5075819;28;20032;-73
2022/06/30 12:35:59;;;;;;;4.85;3.95;;;;;;;37.07;35.61;100770.00;5063014;28;20381;-74
2022/06/30 12:38:45;;;;;;;9.55;4.30;;;;;;;37.08;34.93;100764.34;5076406;28;20035;-74
2022/06/30 12:41:34;;;;;;;7.78;4.18;;;;;;;37.12;34.29;100765.66;5077401;28;20107;-74
2022/06/30 12:44:31;;;;;;;8.15;4.25;;;;;;;36.50;35.91;100759.09;5076003;28;20056;-75
2022/06/30 12:47:17;;;;;;;9.32;4.03;;;;;;;36.72;35.45;100766.31;5076976;28;20032;-74
2022/06/30 12:50:22;;;;;;;9.82;5.10;;;;;;;36.67;35.50;100754.22;5075845;28;20043;-75
2022/06/30 12:53:28;;;;;;;7.28;3.80;;;;;;;36.38;36.19;100749.72;5076442;28;20028;-74
2022/06/30 12:56:22;;;;;;;9.35;5.60;;;;;;;36.83;36.20;100743.94;5076483;28;20035;-74
2022/06/30 12:59:16;;;;;;;10.63;6.00;;;;;;;37.01;35.77;100744.34;5076210;28;20035;-74
2022/06/30 13:02:03;;;;;;;9.05;4.45;;;;;;;37.31;35.55;100759.56;5075463;28;20039;-74
2022/06/30 13:04:53;;;;;;;6.72;3.95;;;;;;;36.88;35.53;100748.84;5075497;28;20059;-75
2022/06/30 13:07:39;;;;;;;5.72;3.72;;;;;;;37.21;35.35;100748.09;5076835;28;20024;-74
2022/06/30 13:11:15;;;;;;;7.95;4.03;;;;;;;36.62;35.04;100748.50;5076659;28;20036;-75